Share

Somerset-Pulaski County-Wilson, KY

Somerset-Pulaski County-Wilson (KSME) Elev 928 ft | 37.05 °N, 84.62 °W | Change Station
Active Advisory: Freeze Warning Active Notice: Record Report

Current weather conditions updated 28 minutes ago

Clear
Clear
52 °F
Feels Like 52 °F
N
4
Wind Variable Wind from ENE
Sunrise 7:02 AM
Sunset 8:14 PM
Moon Waning Gibbous

Tomorrow is forecast to be Much Warmer than today.

Pressure 30.22 in
Visibility 10.0 miles
Clouds Clear
Dew Point 21 °F
Humidity 30%
Rainfall 0.00 in
Snow Depth Not available.
UV 0 out of 16
Pollen 9.10 out of 12
Air Quality Not available.
Flu Activity Sporadic
METAR KSME 170035Z AUTO 07003KT 10SM CLR 11/M06 A3022 RMK AO2

More Conditions Fewer Conditions

Pressure 30.22 in
Visibility 10.0 miles
Clouds Clear
Dew Point 21 °F
Humidity 30%
Rainfall 0.00 in
Snow Depth Not available.
UV 0 out of 16
Pollen 9.10 out of 12
Air Quality Not available.
Flu Activity Sporadic
METAR KSME 170035Z AUTO 07003KT 10SM CLR 11/M06 A3022 RMK AO2

More Conditions Fewer Conditions

10-Day Forecast

Almanac

Astronomy

Apr. 16, 2014 Rise Set
Actual Time 7:02 AM EDT 8:14 PM EDT
Civil Twilight 6:35 AM EDT 8:41 PM EDT
Nautical Twilight 6:03 AM EDT 9:13 PM EDT
Astronomical Twilight 5:30 AM EDT 9:46 PM EDT
Moon 9:55 PM EDT (4/16) 7:51 AM EDT (4/16)
Length of Visible Light 14h 05m
Length of Day
13h 11m
Tomorrow will be 2m 14s longer.
Waning Gibbous, 97% of the Moon is Illuminated
Today
Waning Gibbous
Apr 22
Last Quarter
Apr 29
New
May 6
First Quarter
May 14
Full

Today's Extremes

State Highs State Lows

Community

  • symphony in blue....
    symphony in blue....
  • Dawn Surprise
    Dawn Surprise
  • Yucca delight
    Yucca delight
  • Sunset inside of the Ocean
    Sunset inside of the Ocean
  • Lunar eclipse 15 April 2014
    Lunar eclipse 15 April 2014

WunderPhotos

Upload Photos

1,701,776 photos uploaded!

WunderBlogs® & News

Nearby

Snow Depth

Station Depth Elevation
No new snow has been reported.

Coastal Water Temperatures

Place Temperature
No Stations Reporting

Earthquake Activity

City Distance Mag. Time & Date
Englewood, Tennessee 111 miles 2.8 10:34 PM EDT
2014-04-12
Minimum magnitude displayed is 2.5.

Nearby Weather Stations

Station Location Temp. Windchill Dew Point Humidity Wind Precip. Elev Updated Type
RAWS SOMERSET KY, Ferguson, KY 54 °F - 22 °F 29% NNE  at  4 mph 0.00 in / hr 920 ft 8:01 PM EDT MADIS
Clover Pointe, Somerset, KY 52.0 °F - 24 °F 33% NE  at  1.6 mph 0.00 in / hr 896 ft 9:03 PM EDT Rapid Fire
HALLS BACKYARD WEATHER, SCIENCE HILL, KY 45.2 °F 45 °F 28 °F 51% NNW  at  0.0 mph 0.00 in / hr 1109 ft 9:03 PM EDT Normal
Burnside, KY 51.1 °F - 18 °F 27% NNW  at  0.0 mph 0.00 in / hr 1109 ft 9:03 PM EDT Rapid Fire

Show More Stations Show Fewer Stations

What do you think?

We're not finished. Please let us know what you like, what you don't like, and what you are still missing.